sensor_id;sensor_type;location;lat;lon;timestamp;temperature;humidity
45906;DHT22;31619;49.008;12.106;2023-03-21T00:00:42;8.30;99.90
45906;DHT22;31619;49.008;12.106;2023-03-21T00:03:08;8.30;99.90
45906;DHT22;31619;49.008;12.106;2023-03-21T00:05:41;8.40;99.90
45906;DHT22;31619;49.008;12.106;2023-03-21T00:08:10;8.30;99.90
45906;DHT22;31619;49.008;12.106;2023-03-21T00:10:36;8.30;99.90
45906;DHT22;31619;49.008;12.106;2023-03-21T00:13:01;8.30;99.90
45906;DHT22;31619;49.008;12.106;2023-03-21T00:15:27;8.40;99.90
45906;DHT22;31619;49.008;12.106;2023-03-21T00:17:55;8.40;99.90
45906;DHT22;31619;49.008;12.106;2023-03-21T00:20:29;8.30;99.90
45906;DHT22;31619;49.008;12.106;2023-03-21T00:22:54;8.30;99.90
45906;DHT22;31619;49.008;12.106;2023-03-21T00:25:20;8.20;99.90
45906;DHT22;31619;49.008;12.106;2023-03-21T00:27:45;8.20;99.90
45906;DHT22;31619;49.008;12.106;2023-03-21T00:30:11;8.10;99.90
45906;DHT22;31619;49.008;12.106;2023-03-21T00:32:37;8.10;99.90
45906;DHT22;31619;49.008;12.106;2023-03-21T00:35:03;8.10;99.90
45906;DHT22;31619;49.008;12.106;2023-03-21T00:37:28;8.10;99.90
45906;DHT22;31619;49.008;12.106;2023-03-21T00:39:54;8.00;99.90
45906;DHT22;31619;49.008;12.106;2023-03-21T00:42:19;7.90;99.90
45906;DHT22;31619;49.008;12.106;2023-03-21T00:44:45;8.00;99.90
45906;DHT22;31619;49.008;12.106;2023-03-21T00:47:11;8.00;99.90
45906;DHT22;31619;49.008;12.106;2023-03-21T00:49:37;8.00;99.90
45906;DHT22;31619;49.008;12.106;2023-03-21T00:52:05;8.00;99.90
45906;DHT22;31619;49.008;12.106;2023-03-21T00:54:35;8.10;99.90
45906;DHT22;31619;49.008;12.106;2023-03-21T00:57:02;8.20;99.90
45906;DHT22;31619;49.008;12.106;2023-03-21T00:59:28;8.20;99.90
45906;DHT22;31619;49.008;12.106;2023-03-21T01:01:54;8.20;99.90
45906;DHT22;31619;49.008;12.106;2023-03-21T01:04:20;8.20;99.90
45906;DHT22;31619;49.008;12.106;2023-03-21T01:06:51;8.30;99.90
45906;DHT22;31619;49.008;12.106;2023-03-21T01:09:21;8.40;99.90
45906;DHT22;31619;49.008;12.106;2023-03-21T01:11:48;8.40;99.90
45906;DHT22;31619;49.008;12.106;2023-03-21T01:14:16;8.40;99.90
45906;DHT22;31619;49.008;12.106;2023-03-21T01:16:42;8.30;99.90
45906;DHT22;31619;49.008;12.106;2023-03-21T01:19:10;8.20;99.90
45906;DHT22;31619;49.008;12.106;2023-03-21T01:21:36;8.30;99.90
45906;DHT22;31619;49.008;12.106;2023-03-21T01:24:02;8.10;99.90
45906;DHT22;31619;49.008;12.106;2023-03-21T01:26:27;8.20;99.90
45906;DHT22;31619;49.008;12.106;2023-03-21T01:28:53;8.20;99.90
45906;DHT22;31619;49.008;12.106;2023-03-21T01:31:19;8.30;99.90
45906;DHT22;31619;49.008;12.106;2023-03-21T01:33:45;8.30;99.90
45906;DHT22;31619;49.008;12.106;2023-03-21T01:36:15;8.30;99.90
45906;DHT22;31619;49.008;12.106;2023-03-21T01:38:42;8.30;99.90
45906;DHT22;31619;49.008;12.106;2023-03-21T01:43:50;8.40;99.90
45906;DHT22;31619;49.008;12.106;2023-03-21T01:49:19;8.40;99.90
45906;DHT22;31619;49.008;12.106;2023-03-21T01:51:55;8.40;99.90
45906;DHT22;31619;49.008;12.106;2023-03-21T01:54:29;8.40;99.90
45906;DHT22;31619;49.008;12.106;2023-03-21T01:56:58;8.50;99.90
45906;DHT22;31619;49.008;12.106;2023-03-21T01:59:30;8.50;99.90
45906;DHT22;31619;49.008;12.106;2023-03-21T02:02:02;8.50;99.90
45906;DHT22;31619;49.008;12.106;2023-03-21T02:04:32;8.50;99.90
45906;DHT22;31619;49.008;12.106;2023-03-21T02:09:32;8.40;99.90
45906;DHT22;31619;49.008;12.106;2023-03-21T02:11:59;8.40;99.90
45906;DHT22;31619;49.008;12.106;2023-03-21T02:14:32;8.40;99.90
45906;DHT22;31619;49.008;12.106;2023-03-21T02:17:21;8.40;99.90
45906;DHT22;31619;49.008;12.106;2023-03-21T02:20:05;8.50;99.90
45906;DHT22;31619;49.008;12.106;2023-03-21T02:22:59;8.50;99.90
45906;DHT22;31619;49.008;12.106;2023-03-21T02:33:54;8.30;99.90
45906;DHT22;31619;49.008;12.106;2023-03-21T02:39:12;8.40;99.90
45906;DHT22;31619;49.008;12.106;2023-03-21T02:41:51;8.40;99.90
45906;DHT22;31619;49.008;12.106;2023-03-21T02:44:30;8.40;99.90
45906;DHT22;31619;49.008;12.106;2023-03-21T02:47:33;8.50;99.90
45906;DHT22;31619;49.008;12.106;2023-03-21T02:52:31;8.40;99.90
45906;DHT22;31619;49.008;12.106;2023-03-21T02:54:59;8.40;99.90
45906;DHT22;31619;49.008;12.106;2023-03-21T02:57:25;8.40;99.90
45906;DHT22;31619;49.008;12.106;2023-03-21T02:59:52;8.40;99.90
45906;DHT22;31619;49.008;12.106;2023-03-21T03:02:21;8.40;99.90
45906;DHT22;31619;49.008;12.106;2023-03-21T03:04:47;8.40;99.90
45906;DHT22;31619;49.008;12.106;2023-03-21T03:07:29;8.40;99.90
45906;DHT22;31619;49.008;12.106;2023-03-21T03:10:13;8.40;99.90
45906;DHT22;31619;49.008;12.106;2023-03-21T03:13:25;8.40;99.90
45906;DHT22;31619;49.008;12.106;2023-03-21T03:15:59;8.40;99.90
45906;DHT22;31619;49.008;12.106;2023-03-21T03:18:39;8.40;99.90
45906;DHT22;31619;49.008;12.106;2023-03-21T03:21:37;8.30;99.90
45906;DHT22;31619;49.008;12.106;2023-03-21T03:26:43;8.40;99.90
45906;DHT22;31619;49.008;12.106;2023-03-21T03:29:16;8.30;99.90
45906;DHT22;31619;49.008;12.106;2023-03-21T03:31:47;8.40;99.90
45906;DHT22;31619;49.008;12.106;2023-03-21T03:34:18;8.40;99.90
45906;DHT22;31619;49.008;12.106;2023-03-21T03:36:50;8.40;99.90
45906;DHT22;31619;49.008;12.106;2023-03-21T03:39:26;8.40;99.90
45906;DHT22;31619;49.008;12.106;2023-03-21T03:42:02;8.40;99.90
45906;DHT22;31619;49.008;12.106;2023-03-21T03:44:30;8.50;99.90
45906;DHT22;31619;49.008;12.106;2023-03-21T03:47:09;8.40;99.90
45906;DHT22;31619;49.008;12.106;2023-03-21T03:49:45;8.40;99.90
45906;DHT22;31619;49.008;12.106;2023-03-21T03:52:28;8.50;99.90
45906;DHT22;31619;49.008;12.106;2023-03-21T03:54:54;8.50;99.90
45906;DHT22;31619;49.008;12.106;2023-03-21T03:57:21;8.50;99.90
45906;DHT22;31619;49.008;12.106;2023-03-21T03:59:46;8.50;99.90
45906;DHT22;31619;49.008;12.106;2023-03-21T04:02:13;8.40;99.90
45906;DHT22;31619;49.008;12.106;2023-03-21T04:04:39;8.40;99.90
45906;DHT22;31619;49.008;12.106;2023-03-21T04:07:06;8.40;99.90
45906;DHT22;31619;49.008;12.106;2023-03-21T04:09:32;8.40;99.90
45906;DHT22;31619;49.008;12.106;2023-03-21T04:11:57;8.40;99.90
45906;DHT22;31619;49.008;12.106;2023-03-21T04:14:24;8.40;99.90
45906;DHT22;31619;49.008;12.106;2023-03-21T04:16:49;8.40;99.90
45906;DHT22;31619;49.008;12.106;2023-03-21T04:19:17;8.40;99.90
45906;DHT22;31619;49.008;12.106;2023-03-21T04:21:44;8.30;99.90
45906;DHT22;31619;49.008;12.106;2023-03-21T04:24:10;8.30;99.90
45906;DHT22;31619;49.008;12.106;2023-03-21T04:26:37;8.30;99.90
45906;DHT22;31619;49.008;12.106;2023-03-21T04:29:04;8.20;99.90
45906;DHT22;31619;49.008;12.106;2023-03-21T04:31:31;8.10;99.90
45906;DHT22;31619;49.008;12.106;2023-03-21T04:33:59;8.20;99.90
45906;DHT22;31619;49.008;12.106;2023-03-21T04:36:25;8.20;99.90
45906;DHT22;31619;49.008;12.106;2023-03-21T04:38:55;8.20;99.90
45906;DHT22;31619;49.008;12.106;2023-03-21T04:41:25;8.10;99.90
45906;DHT22;31619;49.008;12.106;2023-03-21T04:43:51;8.10;99.90
45906;DHT22;31619;49.008;12.106;2023-03-21T04:46:17;8.20;99.90
45906;DHT22;31619;49.008;12.106;2023-03-21T04:48:42;8.20;99.90
45906;DHT22;31619;49.008;12.106;2023-03-21T04:51:08;8.20;99.90
45906;DHT22;31619;49.008;12.106;2023-03-21T04:53:34;8.20;99.90
45906;DHT22;31619;49.008;12.106;2023-03-21T04:55:59;8.20;99.90
45906;DHT22;31619;49.008;12.106;2023-03-21T04:58:25;8.20;99.90
45906;DHT22;31619;49.008;12.106;2023-03-21T05:00:51;8.20;99.90
45906;DHT22;31619;49.008;12.106;2023-03-21T05:03:17;8.20;99.90
45906;DHT22;31619;49.008;12.106;2023-03-21T05:05:46;8.20;99.90
45906;DHT22;31619;49.008;12.106;2023-03-21T05:08:13;8.20;99.90
45906;DHT22;31619;49.008;12.106;2023-03-21T05:10:39;8.20;99.90
45906;DHT22;31619;49.008;12.106;2023-03-21T05:13:05;8.10;99.90
45906;DHT22;31619;49.008;12.106;2023-03-21T05:15:30;8.10;99.90
45906;DHT22;31619;49.008;12.106;2023-03-21T05:17:56;8.10;99.90
45906;DHT22;31619;49.008;12.106;2023-03-21T05:20:37;8.00;99.90
45906;DHT22;31619;49.008;12.106;2023-03-21T05:23:07;8.00;99.90
45906;DHT22;31619;49.008;12.106;2023-03-21T05:25:36;8.00;99.90
45906;DHT22;31619;49.008;12.106;2023-03-21T05:28:03;7.90;99.90
45906;DHT22;31619;49.008;12.106;2023-03-21T05:30:29;7.90;99.90
45906;DHT22;31619;49.008;12.106;2023-03-21T05:32:55;7.70;99.90
45906;DHT22;31619;49.008;12.106;2023-03-21T05:35:20;7.60;99.90
45906;DHT22;31619;49.008;12.106;2023-03-21T05:37:46;7.60;99.90
45906;DHT22;31619;49.008;12.106;2023-03-21T05:40:12;7.60;99.90
45906;DHT22;31619;49.008;12.106;2023-03-21T05:42:37;7.60;99.90
45906;DHT22;31619;49.008;12.106;2023-03-21T05:45:03;7.60;99.90
45906;DHT22;31619;49.008;12.106;2023-03-21T05:47:29;7.70;99.90
45906;DHT22;31619;49.008;12.106;2023-03-21T05:49:55;7.80;99.90
45906;DHT22;31619;49.008;12.106;2023-03-21T05:52:21;7.90;99.90
45906;DHT22;31619;49.008;12.106;2023-03-21T05:54:47;8.00;99.90
45906;DHT22;31619;49.008;12.106;2023-03-21T05:57:12;8.10;99.90
45906;DHT22;31619;49.008;12.106;2023-03-21T05:59:38;8.30;99.90
45906;DHT22;31619;49.008;12.106;2023-03-21T06:02:03;8.30;99.90
45906;DHT22;31619;49.008;12.106;2023-03-21T06:04:29;8.40;99.90
45906;DHT22;31619;49.008;12.106;2023-03-21T06:06:55;8.50;99.90
45906;DHT22;31619;49.008;12.106;2023-03-21T06:09:21;8.60;99.90
45906;DHT22;31619;49.008;12.106;2023-03-21T06:11:49;8.70;99.90
45906;DHT22;31619;49.008;12.106;2023-03-21T06:14:16;8.80;99.90
45906;DHT22;31619;49.008;12.106;2023-03-21T06:16:43;8.80;99.90
45906;DHT22;31619;49.008;12.106;2023-03-21T06:19:09;8.80;99.90
45906;DHT22;31619;49.008;12.106;2023-03-21T06:21:34;8.90;99.90
45906;DHT22;31619;49.008;12.106;2023-03-21T06:24:00;8.90;99.90
45906;DHT22;31619;49.008;12.106;2023-03-21T06:26:26;9.00;99.90
45906;DHT22;31619;49.008;12.106;2023-03-21T06:28:52;9.20;99.90
45906;DHT22;31619;49.008;12.106;2023-03-21T06:31:18;9.30;99.90
45906;DHT22;31619;49.008;12.106;2023-03-21T06:33:47;9.50;99.90
45906;DHT22;31619;49.008;12.106;2023-03-21T06:36:13;9.60;99.90
45906;DHT22;31619;49.008;12.106;2023-03-21T06:38:38;9.80;99.90
45906;DHT22;31619;49.008;12.106;2023-03-21T06:41:04;9.90;99.90
45906;DHT22;31619;49.008;12.106;2023-03-21T06:43:30;10.10;99.90
45906;DHT22;31619;49.008;12.106;2023-03-21T06:45:56;10.30;99.90
45906;DHT22;31619;49.008;12.106;2023-03-21T06:48:22;10.40;99.90
45906;DHT22;31619;49.008;12.106;2023-03-21T06:50:49;10.40;99.90
45906;DHT22;31619;49.008;12.106;2023-03-21T06:53:16;10.50;99.90
45906;DHT22;31619;49.008;12.106;2023-03-21T06:55:42;10.60;99.90
45906;DHT22;31619;49.008;12.106;2023-03-21T06:58:07;10.80;99.90
45906;DHT22;31619;49.008;12.106;2023-03-21T07:00:33;10.90;99.90
45906;DHT22;31619;49.008;12.106;2023-03-21T07:02:59;11.10;99.90
45906;DHT22;31619;49.008;12.106;2023-03-21T07:05:26;11.20;99.90
45906;DHT22;31619;49.008;12.106;2023-03-21T07:07:52;11.30;99.90
45906;DHT22;31619;49.008;12.106;2023-03-21T07:10:17;11.30;99.90
45906;DHT22;31619;49.008;12.106;2023-03-21T07:12:43;11.20;99.90
45906;DHT22;31619;49.008;12.106;2023-03-21T07:15:09;11.20;99.90
45906;DHT22;31619;49.008;12.106;2023-03-21T07:17:41;11.30;99.90
45906;DHT22;31619;49.008;12.106;2023-03-21T07:20:08;11.30;99.90
45906;DHT22;31619;49.008;12.106;2023-03-21T07:22:34;11.40;99.90
45906;DHT22;31619;49.008;12.106;2023-03-21T07:25:00;11.40;99.90
45906;DHT22;31619;49.008;12.106;2023-03-21T07:27:26;11.40;99.90
45906;DHT22;31619;49.008;12.106;2023-03-21T07:29:58;11.50;99.90
45906;DHT22;31619;49.008;12.106;2023-03-21T07:45:57;11.60;99.90
45906;DHT22;31619;49.008;12.106;2023-03-21T07:48:22;11.40;99.90
45906;DHT22;31619;49.008;12.106;2023-03-21T07:50:51;11.30;99.90
45906;DHT22;31619;49.008;12.106;2023-03-21T07:56:29;11.30;99.90
45906;DHT22;31619;49.008;12.106;2023-03-21T07:58:54;11.30;99.90
45906;DHT22;31619;49.008;12.106;2023-03-21T08:01:20;11.20;99.90
45906;DHT22;31619;49.008;12.106;2023-03-21T08:03:46;11.20;99.90
45906;DHT22;31619;49.008;12.106;2023-03-21T08:06:13;11.10;99.90
45906;DHT22;31619;49.008;12.106;2023-03-21T08:08:42;11.10;99.90
45906;DHT22;31619;49.008;12.106;2023-03-21T08:11:09;11.10;99.90
45906;DHT22;31619;49.008;12.106;2023-03-21T08:13:35;11.10;99.90
45906;DHT22;31619;49.008;12.106;2023-03-21T08:16:09;11.20;99.90
45906;DHT22;31619;49.008;12.106;2023-03-21T08:18:35;11.20;99.90
45906;DHT22;31619;49.008;12.106;2023-03-21T08:21:04;11.40;99.90
45906;DHT22;31619;49.008;12.106;2023-03-21T08:23:29;11.40;99.90
45906;DHT22;31619;49.008;12.106;2023-03-21T08:25:56;11.60;99.90
45906;DHT22;31619;49.008;12.106;2023-03-21T08:28:22;11.60;99.90
45906;DHT22;31619;49.008;12.106;2023-03-21T08:30:49;11.80;99.90
45906;DHT22;31619;49.008;12.106;2023-03-21T08:33:15;12.10;99.90
45906;DHT22;31619;49.008;12.106;2023-03-21T08:35:49;12.50;99.90
45906;DHT22;31619;49.008;12.106;2023-03-21T08:38:24;12.70;99.90
45906;DHT22;31619;49.008;12.106;2023-03-21T08:40:57;12.90;99.90
45906;DHT22;31619;49.008;12.106;2023-03-21T08:43:26;13.00;99.90
45906;DHT22;31619;49.008;12.106;2023-03-21T08:45:55;12.90;99.90
45906;DHT22;31619;49.008;12.106;2023-03-21T08:48:24;12.90;99.90
45906;DHT22;31619;49.008;12.106;2023-03-21T08:50:59;12.90;99.90
45906;DHT22;31619;49.008;12.106;2023-03-21T08:53:25;13.10;99.90
45906;DHT22;31619;49.008;12.106;2023-03-21T08:55:51;13.20;99.90
45906;DHT22;31619;49.008;12.106;2023-03-21T08:58:16;13.50;99.90
45906;DHT22;31619;49.008;12.106;2023-03-21T09:00:48;14.30;99.90
45906;DHT22;31619;49.008;12.106;2023-03-21T09:03:15;16.20;99.90
45906;DHT22;31619;49.008;12.106;2023-03-21T09:05:41;18.00;98.60
45906;DHT22;31619;49.008;12.106;2023-03-21T09:08:10;19.30;94.50
45906;DHT22;31619;49.008;12.106;2023-03-21T09:10:37;20.70;89.90
45906;DHT22;31619;49.008;12.106;2023-03-21T09:13:03;21.70;80.00
45906;DHT22;31619;49.008;12.106;2023-03-21T09:15:28;21.80;74.90
45906;DHT22;31619;49.008;12.106;2023-03-21T09:17:54;21.80;68.70
45906;DHT22;31619;49.008;12.106;2023-03-21T09:20:24;20.80;70.70
45906;DHT22;31619;49.008;12.106;2023-03-21T09:22:55;20.30;71.90
45906;DHT22;31619;49.008;12.106;2023-03-21T09:25:22;21.40;71.00
45906;DHT22;31619;49.008;12.106;2023-03-21T09:27:49;23.10;64.70
45906;DHT22;31619;49.008;12.106;2023-03-21T09:30:17;24.70;58.50
45906;DHT22;31619;49.008;12.106;2023-03-21T09:32:44;25.80;54.30
45906;DHT22;31619;49.008;12.106;2023-03-21T09:35:16;26.90;53.10
45906;DHT22;31619;49.008;12.106;2023-03-21T09:37:43;28.00;48.10
45906;DHT22;31619;49.008;12.106;2023-03-21T09:43:17;29.40;45.40
45906;DHT22;31619;49.008;12.106;2023-03-21T09:46:09;29.60;45.10
45906;DHT22;31619;49.008;12.106;2023-03-21T09:51:09;28.90;43.40
45906;DHT22;31619;49.008;12.106;2023-03-21T09:53:40;28.70;45.00
45906;DHT22;31619;49.008;12.106;2023-03-21T09:56:09;28.90;43.50
45906;DHT22;31619;49.008;12.106;2023-03-21T09:58:40;29.30;44.90
45906;DHT22;31619;49.008;12.106;2023-03-21T10:01:09;29.80;43.90
45906;DHT22;31619;49.008;12.106;2023-03-21T10:03:47;30.50;41.70
45906;DHT22;31619;49.008;12.106;2023-03-21T10:06:14;31.00;40.80
45906;DHT22;31619;49.008;12.106;2023-03-21T10:08:44;31.30;40.90
45906;DHT22;31619;49.008;12.106;2023-03-21T10:11:40;32.00;40.50
45906;DHT22;31619;49.008;12.106;2023-03-21T10:14:40;33.00;38.40
45906;DHT22;31619;49.008;12.106;2023-03-21T10:19:40;33.50;37.80
45906;DHT22;31619;49.008;12.106;2023-03-21T10:22:10;33.60;36.80
45906;DHT22;31619;49.008;12.106;2023-03-21T10:24:37;33.30;37.10
45906;DHT22;31619;49.008;12.106;2023-03-21T10:27:03;32.90;38.10
45906;DHT22;31619;49.008;12.106;2023-03-21T10:29:40;33.50;37.60
45906;DHT22;31619;49.008;12.106;2023-03-21T10:32:13;34.20;36.60
45906;DHT22;31619;49.008;12.106;2023-03-21T10:34:48;34.20;35.80
45906;DHT22;31619;49.008;12.106;2023-03-21T10:37:14;33.50;37.20
45906;DHT22;31619;49.008;12.106;2023-03-21T10:39:52;34.30;36.50
45906;DHT22;31619;49.008;12.106;2023-03-21T10:42:25;35.40;34.60
45906;DHT22;31619;49.008;12.106;2023-03-21T10:44:53;35.60;34.30
45906;DHT22;31619;49.008;12.106;2023-03-21T10:47:22;34.20;35.30
45906;DHT22;31619;49.008;12.106;2023-03-21T10:49:48;33.10;36.60
45906;DHT22;31619;49.008;12.106;2023-03-21T10:52:19;32.60;37.30
45906;DHT22;31619;49.008;12.106;2023-03-21T10:54:46;33.00;36.80
45906;DHT22;31619;49.008;12.106;2023-03-21T10:57:19;33.30;36.90
45906;DHT22;31619;49.008;12.106;2023-03-21T11:02:36;33.90;36.80
45906;DHT22;31619;49.008;12.106;2023-03-21T11:05:07;34.80;35.60
45906;DHT22;31619;49.008;12.106;2023-03-21T11:07:34;35.20;36.80
45906;DHT22;31619;49.008;12.106;2023-03-21T11:10:12;36.00;36.40
45906;DHT22;31619;49.008;12.106;2023-03-21T11:12:39;36.20;36.30
45906;DHT22;31619;49.008;12.106;2023-03-21T11:15:33;35.90;33.90
45906;DHT22;31619;49.008;12.106;2023-03-21T11:18:38;35.00;34.90
45906;DHT22;31619;49.008;12.106;2023-03-21T11:21:07;34.30;34.80
45906;DHT22;31619;49.008;12.106;2023-03-21T11:23:38;33.90;36.70
45906;DHT22;31619;49.008;12.106;2023-03-21T11:26:09;34.30;36.70
45906;DHT22;31619;49.008;12.106;2023-03-21T11:28:38;34.20;36.50
45906;DHT22;31619;49.008;12.106;2023-03-21T11:31:05;33.00;37.30
45906;DHT22;31619;49.008;12.106;2023-03-21T11:33:41;32.90;37.60
45906;DHT22;31619;49.008;12.106;2023-03-21T11:38:54;32.90;38.10
45906;DHT22;31619;49.008;12.106;2023-03-21T11:41:32;32.90;38.40
45906;DHT22;31619;49.008;12.106;2023-03-21T11:43:59;33.40;37.60
45906;DHT22;31619;49.008;12.106;2023-03-21T11:46:30;33.90;39.00
45906;DHT22;31619;49.008;12.106;2023-03-21T11:48:56;34.40;37.80
45906;DHT22;31619;49.008;12.106;2023-03-21T11:51:40;34.30;36.50
45906;DHT22;31619;49.008;12.106;2023-03-21T12:00:28;34.70;36.50
45906;DHT22;31619;49.008;12.106;2023-03-21T12:05:45;34.40;36.60
45906;DHT22;31619;49.008;12.106;2023-03-21T12:16:05;35.60;35.60
45906;DHT22;31619;49.008;12.106;2023-03-21T12:21:32;35.30;36.50
45906;DHT22;31619;49.008;12.106;2023-03-21T12:24:09;35.40;36.20
45906;DHT22;31619;49.008;12.106;2023-03-21T12:43:29;33.70;36.80
45906;DHT22;31619;49.008;12.106;2023-03-21T12:48:44;33.80;36.70
45906;DHT22;31619;49.008;12.106;2023-03-21T12:51:14;33.40;36.90
45906;DHT22;31619;49.008;12.106;2023-03-21T12:56:14;32.40;38.10
45906;DHT22;31619;49.008;12.106;2023-03-21T12:58:56;32.20;39.10
45906;DHT22;31619;49.008;12.106;2023-03-21T13:01:23;32.70;38.00
45906;DHT22;31619;49.008;12.106;2023-03-21T13:06:40;32.10;38.40
45906;DHT22;31619;49.008;12.106;2023-03-21T13:09:15;31.70;39.10
45906;DHT22;31619;49.008;12.106;2023-03-21T13:11:42;30.90;39.90
45906;DHT22;31619;49.008;12.106;2023-03-21T13:16:40;31.10;40.00
45906;DHT22;31619;49.008;12.106;2023-03-21T13:22:13;30.70;40.20
45906;DHT22;31619;49.008;12.106;2023-03-21T13:24:58;30.50;40.60
45906;DHT22;31619;49.008;12.106;2023-03-21T13:27:27;29.70;41.70
45906;DHT22;31619;49.008;12.106;2023-03-21T13:30:03;29.90;41.60
45906;DHT22;31619;49.008;12.106;2023-03-21T13:32:39;30.50;40.90
45906;DHT22;31619;49.008;12.106;2023-03-21T13:35:40;30.20;41.00
45906;DHT22;31619;49.008;12.106;2023-03-21T13:38:17;29.50;41.60
45906;DHT22;31619;49.008;12.106;2023-03-21T13:40:51;28.80;42.80
45906;DHT22;31619;49.008;12.106;2023-03-21T13:43:41;29.20;42.30
45906;DHT22;31619;49.008;12.106;2023-03-21T13:59:10;33.20;38.10
45906;DHT22;31619;49.008;12.106;2023-03-21T14:01:41;33.00;38.20
45906;DHT22;31619;49.008;12.106;2023-03-21T14:04:25;34.10;37.60
45906;DHT22;31619;49.008;12.106;2023-03-21T14:07:12;35.30;36.30
45906;DHT22;31619;49.008;12.106;2023-03-21T14:09:49;36.90;35.60
45906;DHT22;31619;49.008;12.106;2023-03-21T14:12:28;37.10;35.20
45906;DHT22;31619;49.008;12.106;2023-03-21T14:17:59;36.60;34.70
45906;DHT22;31619;49.008;12.106;2023-03-21T14:20:28;36.20;34.60
45906;DHT22;31619;49.008;12.106;2023-03-21T14:22:55;36.30;35.40
45906;DHT22;31619;49.008;12.106;2023-03-21T14:25:22;36.90;34.40
45906;DHT22;31619;49.008;12.106;2023-03-21T14:27:54;36.40;34.60
45906;DHT22;31619;49.008;12.106;2023-03-21T14:30:29;36.70;34.80
45906;DHT22;31619;49.008;12.106;2023-03-21T14:32:58;37.60;34.00
45906;DHT22;31619;49.008;12.106;2023-03-21T14:35:29;37.90;33.90
45906;DHT22;31619;49.008;12.106;2023-03-21T14:37:59;38.60;33.40
45906;DHT22;31619;49.008;12.106;2023-03-21T14:40:26;38.60;33.20
45906;DHT22;31619;49.008;12.106;2023-03-21T14:42:52;38.70;33.60
45906;DHT22;31619;49.008;12.106;2023-03-21T14:45:21;38.20;33.20
45906;DHT22;31619;49.008;12.106;2023-03-21T14:47:59;38.00;33.20
45906;DHT22;31619;49.008;12.106;2023-03-21T14:50:52;37.40;33.90
45906;DHT22;31619;49.008;12.106;2023-03-21T14:53:35;36.80;34.70
45906;DHT22;31619;49.008;12.106;2023-03-21T14:58:27;36.90;34.40
45906;DHT22;31619;49.008;12.106;2023-03-21T15:00:56;37.20;34.10
45906;DHT22;31619;49.008;12.106;2023-03-21T15:03:23;37.40;34.10
45906;DHT22;31619;49.008;12.106;2023-03-21T15:05:52;37.10;34.00
45906;DHT22;31619;49.008;12.106;2023-03-21T15:08:19;36.70;34.20
45906;DHT22;31619;49.008;12.106;2023-03-21T15:11:06;35.70;35.10
45906;DHT22;31619;49.008;12.106;2023-03-21T15:13:39;34.50;35.80
45906;DHT22;31619;49.008;12.106;2023-03-21T15:16:10;33.40;37.20
45906;DHT22;31619;49.008;12.106;2023-03-21T15:18:37;32.50;38.00
45906;DHT22;31619;49.008;12.106;2023-03-21T15:23:54;31.10;39.60
45906;DHT22;31619;49.008;12.106;2023-03-21T15:26:23;30.50;40.20
45906;DHT22;31619;49.008;12.106;2023-03-21T15:28:55;30.00;40.70
45906;DHT22;31619;49.008;12.106;2023-03-21T15:31:23;29.60;41.70
45906;DHT22;31619;49.008;12.106;2023-03-21T15:33:51;29.60;41.60
45906;DHT22;31619;49.008;12.106;2023-03-21T15:36:25;29.20;42.00
45906;DHT22;31619;49.008;12.106;2023-03-21T15:38:51;28.70;42.30
45906;DHT22;31619;49.008;12.106;2023-03-21T15:43:43;27.30;44.00
45906;DHT22;31619;49.008;12.106;2023-03-21T15:46:14;26.40;45.30
45906;DHT22;31619;49.008;12.106;2023-03-21T15:48:40;25.80;46.00
45906;DHT22;31619;49.008;12.106;2023-03-21T15:51:13;25.10;47.30
45906;DHT22;31619;49.008;12.106;2023-03-21T15:53:42;24.30;48.30
45906;DHT22;31619;49.008;12.106;2023-03-21T15:56:09;23.40;49.40
45906;DHT22;31619;49.008;12.106;2023-03-21T15:58:46;22.70;50.70
45906;DHT22;31619;49.008;12.106;2023-03-21T16:01:17;22.10;51.70
45906;DHT22;31619;49.008;12.106;2023-03-21T16:03:46;21.60;52.70
45906;DHT22;31619;49.008;12.106;2023-03-21T16:06:22;21.30;53.20
45906;DHT22;31619;49.008;12.106;2023-03-21T16:08:53;20.90;54.00
45906;DHT22;31619;49.008;12.106;2023-03-21T16:11:38;20.50;54.80
45906;DHT22;31619;49.008;12.106;2023-03-21T16:14:04;20.20;55.40
45906;DHT22;31619;49.008;12.106;2023-03-21T16:16:30;19.70;56.60
45906;DHT22;31619;49.008;12.106;2023-03-21T16:18:57;19.30;57.20
45906;DHT22;31619;49.008;12.106;2023-03-21T16:21:26;19.00;57.70
45906;DHT22;31619;49.008;12.106;2023-03-21T16:23:53;18.70;58.60
45906;DHT22;31619;49.008;12.106;2023-03-21T16:26:30;18.50;59.40
45906;DHT22;31619;49.008;12.106;2023-03-21T16:28:57;18.40;59.80
45906;DHT22;31619;49.008;12.106;2023-03-21T16:31:25;18.10;60.90
45906;DHT22;31619;49.008;12.106;2023-03-21T16:33:51;17.80;61.90
45906;DHT22;31619;49.008;12.106;2023-03-21T16:36:23;17.70;62.60
45906;DHT22;31619;49.008;12.106;2023-03-21T16:38:50;17.60;63.50
45906;DHT22;31619;49.008;12.106;2023-03-21T16:41:20;17.40;63.80
45906;DHT22;31619;49.008;12.106;2023-03-21T16:43:46;17.30;64.50
45906;DHT22;31619;49.008;12.106;2023-03-21T16:46:21;17.10;65.20
45906;DHT22;31619;49.008;12.106;2023-03-21T16:48:49;17.00;65.70
45906;DHT22;31619;49.008;12.106;2023-03-21T16:51:23;17.00;67.30
45906;DHT22;31619;49.008;12.106;2023-03-21T16:53:51;16.80;67.20
45906;DHT22;31619;49.008;12.106;2023-03-21T16:56:37;16.80;69.10
45906;DHT22;31619;49.008;12.106;2023-03-21T16:59:05;16.70;71.20
45906;DHT22;31619;49.008;12.106;2023-03-21T17:01:31;16.50;70.10
45906;DHT22;31619;49.008;12.106;2023-03-21T17:03:57;16.50;69.50
45906;DHT22;31619;49.008;12.106;2023-03-21T17:06:25;16.30;70.00
45906;DHT22;31619;49.008;12.106;2023-03-21T17:08:53;16.30;70.40
45906;DHT22;31619;49.008;12.106;2023-03-21T17:11:20;16.20;70.80
45906;DHT22;31619;49.008;12.106;2023-03-21T17:13:48;16.10;71.50
45906;DHT22;31619;49.008;12.106;2023-03-21T17:16:16;16.00;72.70
45906;DHT22;31619;49.008;12.106;2023-03-21T17:18:43;15.90;72.70
45906;DHT22;31619;49.008;12.106;2023-03-21T17:21:24;15.80;73.00
45906;DHT22;31619;49.008;12.106;2023-03-21T17:23:50;15.70;74.10
45906;DHT22;31619;49.008;12.106;2023-03-21T17:26:24;15.70;75.30
45906;DHT22;31619;49.008;12.106;2023-03-21T17:28:52;15.70;77.70
45906;DHT22;31619;49.008;12.106;2023-03-21T17:31:20;15.60;77.10
45906;DHT22;31619;49.008;12.106;2023-03-21T17:33:46;15.60;77.20
45906;DHT22;31619;49.008;12.106;2023-03-21T17:36:22;15.40;77.00
45906;DHT22;31619;49.008;12.106;2023-03-21T17:38:49;15.40;77.10
45906;DHT22;31619;49.008;12.106;2023-03-21T17:41:18;15.40;77.30
45906;DHT22;31619;49.008;12.106;2023-03-21T17:43:44;15.40;77.70
45906;DHT22;31619;49.008;12.106;2023-03-21T17:46:15;15.40;77.90
45906;DHT22;31619;49.008;12.106;2023-03-21T17:48:42;15.20;78.20